sensor_id;sensor_type;location;lat;lon;timestamp;temperature;humidity
43987;DHT22;29650;47.378;8.300;2022-10-16T00:01:52;13.80;99.90
43987;DHT22;29650;47.378;8.300;2022-10-16T00:04:19;13.80;99.90
43987;DHT22;29650;47.378;8.300;2022-10-16T00:06:46;13.90;99.90
43987;DHT22;29650;47.378;8.300;2022-10-16T00:09:13;13.90;99.90
43987;DHT22;29650;47.378;8.300;2022-10-16T00:11:41;13.90;99.90
43987;DHT22;29650;47.378;8.300;2022-10-16T00:14:11;13.90;99.90
43987;DHT22;29650;47.378;8.300;2022-10-16T00:16:38;14.00;99.90
43987;DHT22;29650;47.378;8.300;2022-10-16T00:19:05;14.00;99.90
43987;DHT22;29650;47.378;8.300;2022-10-16T00:21:33;14.00;99.90
43987;DHT22;29650;47.378;8.300;2022-10-16T00:24:02;14.10;99.90
43987;DHT22;29650;47.378;8.300;2022-10-16T00:26:30;14.10;99.90
43987;DHT22;29650;47.378;8.300;2022-10-16T00:28:59;13.90;99.90
43987;DHT22;29650;47.378;8.300;2022-10-16T00:31:26;13.80;99.90
43987;DHT22;29650;47.378;8.300;2022-10-16T00:33:53;13.80;99.90
43987;DHT22;29650;47.378;8.300;2022-10-16T00:36:23;13.80;99.90
43987;DHT22;29650;47.378;8.300;2022-10-16T00:38:51;13.70;99.90
43987;DHT22;29650;47.378;8.300;2022-10-16T00:41:20;13.60;99.90
43987;DHT22;29650;47.378;8.300;2022-10-16T00:43:49;13.70;99.90
43987;DHT22;29650;47.378;8.300;2022-10-16T00:46:20;13.70;99.90
43987;DHT22;29650;47.378;8.300;2022-10-16T00:48:50;13.70;99.90
43987;DHT22;29650;47.378;8.300;2022-10-16T00:51:21;13.80;99.90
43987;DHT22;29650;47.378;8.300;2022-10-16T00:53:50;13.80;99.90
43987;DHT22;29650;47.378;8.300;2022-10-16T00:56:17;13.80;99.90
43987;DHT22;29650;47.378;8.300;2022-10-16T00:58:44;13.80;99.90
43987;DHT22;29650;47.378;8.300;2022-10-16T01:01:11;13.80;99.90
43987;DHT22;29650;47.378;8.300;2022-10-16T01:03:40;13.80;99.90
43987;DHT22;29650;47.378;8.300;2022-10-16T01:06:20;13.80;99.90
43987;DHT22;29650;47.378;8.300;2022-10-16T01:08:57;13.90;99.90
43987;DHT22;29650;47.378;8.300;2022-10-16T01:11:28;13.90;99.90
43987;DHT22;29650;47.378;8.300;2022-10-16T01:14:02;13.90;99.90
43987;DHT22;29650;47.378;8.300;2022-10-16T01:16:36;14.00;99.90
43987;DHT22;29650;47.378;8.300;2022-10-16T01:19:10;14.00;99.90
43987;DHT22;29650;47.378;8.300;2022-10-16T01:21:41;14.00;99.90
43987;DHT22;29650;47.378;8.300;2022-10-16T01:24:15;14.00;99.90
43987;DHT22;29650;47.378;8.300;2022-10-16T01:27:10;13.90;99.90
43987;DHT22;29650;47.378;8.300;2022-10-16T01:29:42;13.80;99.90
43987;DHT22;29650;47.378;8.300;2022-10-16T01:32:16;13.80;99.90
43987;DHT22;29650;47.378;8.300;2022-10-16T01:34:48;13.70;99.90
43987;DHT22;29650;47.378;8.300;2022-10-16T01:37:22;13.70;99.90
43987;DHT22;29650;47.378;8.300;2022-10-16T01:39:50;13.80;99.90
43987;DHT22;29650;47.378;8.300;2022-10-16T01:42:23;13.70;99.90
43987;DHT22;29650;47.378;8.300;2022-10-16T01:44:51;13.80;99.90
43987;DHT22;29650;47.378;8.300;2022-10-16T01:47:22;13.80;99.90
43987;DHT22;29650;47.378;8.300;2022-10-16T01:49:50;13.70;99.90
43987;DHT22;29650;47.378;8.300;2022-10-16T01:52:21;13.70;99.90
43987;DHT22;29650;47.378;8.300;2022-10-16T01:54:52;13.60;99.90
43987;DHT22;29650;47.378;8.300;2022-10-16T01:57:22;13.60;99.90
43987;DHT22;29650;47.378;8.300;2022-10-16T01:59:52;13.60;99.90
43987;DHT22;29650;47.378;8.300;2022-10-16T02:02:22;13.60;99.90
43987;DHT22;29650;47.378;8.300;2022-10-16T02:04:54;13.70;99.90
43987;DHT22;29650;47.378;8.300;2022-10-16T02:07:24;13.60;99.90
43987;DHT22;29650;47.378;8.300;2022-10-16T02:09:51;13.60;99.90
43987;DHT22;29650;47.378;8.300;2022-10-16T02:12:23;13.60;99.90
43987;DHT22;29650;47.378;8.300;2022-10-16T02:14:52;13.60;99.90
43987;DHT22;29650;47.378;8.300;2022-10-16T02:17:19;13.50;99.90
43987;DHT22;29650;47.378;8.300;2022-10-16T02:19:48;13.60;99.90
43987;DHT22;29650;47.378;8.300;2022-10-16T02:22:19;13.50;99.90
43987;DHT22;29650;47.378;8.300;2022-10-16T02:24:53;13.40;99.90
43987;DHT22;29650;47.378;8.300;2022-10-16T02:27:26;13.30;99.90
43987;DHT22;29650;47.378;8.300;2022-10-16T02:29:57;13.40;99.90
43987;DHT22;29650;47.378;8.300;2022-10-16T02:32:30;13.50;99.90
43987;DHT22;29650;47.378;8.300;2022-10-16T02:34:58;13.50;99.90
43987;DHT22;29650;47.378;8.300;2022-10-16T02:37:27;13.40;99.90
43987;DHT22;29650;47.378;8.300;2022-10-16T02:39:56;13.40;99.90
43987;DHT22;29650;47.378;8.300;2022-10-16T02:42:29;13.50;99.90
43987;DHT22;29650;47.378;8.300;2022-10-16T02:44:59;13.50;99.90
43987;DHT22;29650;47.378;8.300;2022-10-16T02:47:26;13.40;99.90
43987;DHT22;29650;47.378;8.300;2022-10-16T02:49:53;13.40;99.90
43987;DHT22;29650;47.378;8.300;2022-10-16T02:52:20;13.50;99.90
43987;DHT22;29650;47.378;8.300;2022-10-16T02:54:47;13.50;99.90
43987;DHT22;29650;47.378;8.300;2022-10-16T02:57:14;13.50;99.90
43987;DHT22;29650;47.378;8.300;2022-10-16T02:59:42;13.60;99.90
43987;DHT22;29650;47.378;8.300;2022-10-16T03:02:09;13.50;99.90
43987;DHT22;29650;47.378;8.300;2022-10-16T03:04:36;13.50;99.90
43987;DHT22;29650;47.378;8.300;2022-10-16T03:07:03;13.50;99.90
43987;DHT22;29650;47.378;8.300;2022-10-16T03:09:30;13.60;99.90
43987;DHT22;29650;47.378;8.300;2022-10-16T03:11:57;13.50;99.90
43987;DHT22;29650;47.378;8.300;2022-10-16T03:14:24;13.50;99.90
43987;DHT22;29650;47.378;8.300;2022-10-16T03:16:52;13.40;99.90
43987;DHT22;29650;47.378;8.300;2022-10-16T03:19:19;13.40;99.90
43987;DHT22;29650;47.378;8.300;2022-10-16T03:21:47;13.30;99.90
43987;DHT22;29650;47.378;8.300;2022-10-16T03:24:13;13.30;99.90
43987;DHT22;29650;47.378;8.300;2022-10-16T03:26:41;13.20;99.90
43987;DHT22;29650;47.378;8.300;2022-10-16T03:29:07;13.30;99.90
43987;DHT22;29650;47.378;8.300;2022-10-16T03:31:34;13.30;99.90
43987;DHT22;29650;47.378;8.300;2022-10-16T03:34:02;13.30;99.90
43987;DHT22;29650;47.378;8.300;2022-10-16T03:36:29;13.20;99.90
43987;DHT22;29650;47.378;8.300;2022-10-16T03:38:56;13.30;99.90
43987;DHT22;29650;47.378;8.300;2022-10-16T03:41:23;13.30;99.90
43987;DHT22;29650;47.378;8.300;2022-10-16T03:43:50;13.30;99.90
43987;DHT22;29650;47.378;8.300;2022-10-16T03:46:17;13.30;99.90
43987;DHT22;29650;47.378;8.300;2022-10-16T03:48:44;13.30;99.90
43987;DHT22;29650;47.378;8.300;2022-10-16T03:51:12;13.30;99.90
43987;DHT22;29650;47.378;8.300;2022-10-16T03:53:39;13.20;99.90
43987;DHT22;29650;47.378;8.300;2022-10-16T03:56:06;13.10;99.90
43987;DHT22;29650;47.378;8.300;2022-10-16T03:58:33;13.30;99.90
43987;DHT22;29650;47.378;8.300;2022-10-16T04:01:00;13.30;99.90
43987;DHT22;29650;47.378;8.300;2022-10-16T04:03:27;13.20;99.90
43987;DHT22;29650;47.378;8.300;2022-10-16T04:05:54;13.30;99.90
43987;DHT22;29650;47.378;8.300;2022-10-16T04:08:22;13.40;99.90
43987;DHT22;29650;47.378;8.300;2022-10-16T04:10:49;13.30;99.90
43987;DHT22;29650;47.378;8.300;2022-10-16T04:13:16;13.40;99.90
43987;DHT22;29650;47.378;8.300;2022-10-16T04:15:44;13.50;99.90
43987;DHT22;29650;47.378;8.300;2022-10-16T04:18:11;13.40;99.90
43987;DHT22;29650;47.378;8.300;2022-10-16T04:20:38;13.30;99.90
43987;DHT22;29650;47.378;8.300;2022-10-16T04:23:05;13.40;99.90
43987;DHT22;29650;47.378;8.300;2022-10-16T04:25:34;13.30;99.90
43987;DHT22;29650;47.378;8.300;2022-10-16T04:28:00;13.30;99.90
43987;DHT22;29650;47.378;8.300;2022-10-16T04:30:27;13.20;99.90
43987;DHT22;29650;47.378;8.300;2022-10-16T04:32:54;13.30;99.90
43987;DHT22;29650;47.378;8.300;2022-10-16T04:35:21;13.20;99.90
43987;DHT22;29650;47.378;8.300;2022-10-16T04:37:48;13.30;99.90
43987;DHT22;29650;47.378;8.300;2022-10-16T04:40:16;13.30;99.90
43987;DHT22;29650;47.378;8.300;2022-10-16T04:42:44;13.30;99.90
43987;DHT22;29650;47.378;8.300;2022-10-16T04:45:11;13.20;99.90
43987;DHT22;29650;47.378;8.300;2022-10-16T04:47:38;13.30;99.90
43987;DHT22;29650;47.378;8.300;2022-10-16T04:50:05;13.30;99.90
43987;DHT22;29650;47.378;8.300;2022-10-16T04:52:32;13.30;99.90
43987;DHT22;29650;47.378;8.300;2022-10-16T04:54:59;13.20;99.90
43987;DHT22;29650;47.378;8.300;2022-10-16T04:57:28;13.30;99.90
43987;DHT22;29650;47.378;8.300;2022-10-16T04:59:56;13.30;99.90
43987;DHT22;29650;47.378;8.300;2022-10-16T05:02:23;13.30;99.90
43987;DHT22;29650;47.378;8.300;2022-10-16T05:04:50;13.30;99.90
43987;DHT22;29650;47.378;8.300;2022-10-16T05:07:18;13.30;99.90
43987;DHT22;29650;47.378;8.300;2022-10-16T05:09:44;13.30;99.90
43987;DHT22;29650;47.378;8.300;2022-10-16T05:12:11;13.30;99.90
43987;DHT22;29650;47.378;8.300;2022-10-16T05:14:38;13.30;99.90
43987;DHT22;29650;47.378;8.300;2022-10-16T05:17:07;13.30;99.90
43987;DHT22;29650;47.378;8.300;2022-10-16T05:19:33;13.30;99.90
43987;DHT22;29650;47.378;8.300;2022-10-16T05:22:01;13.30;99.90
43987;DHT22;29650;47.378;8.300;2022-10-16T05:24:27;13.30;99.90
43987;DHT22;29650;47.378;8.300;2022-10-16T05:26:54;13.30;99.90
43987;DHT22;29650;47.378;8.300;2022-10-16T05:29:21;13.30;99.90
43987;DHT22;29650;47.378;8.300;2022-10-16T05:31:50;13.20;99.90
43987;DHT22;29650;47.378;8.300;2022-10-16T05:34:19;13.20;99.90
43987;DHT22;29650;47.378;8.300;2022-10-16T05:36:46;13.30;99.90
43987;DHT22;29650;47.378;8.300;2022-10-16T05:39:14;13.20;99.90
43987;DHT22;29650;47.378;8.300;2022-10-16T05:41:41;13.30;99.90
43987;DHT22;29650;47.378;8.300;2022-10-16T05:44:08;13.30;99.90
43987;DHT22;29650;47.378;8.300;2022-10-16T05:46:35;13.40;99.90
43987;DHT22;29650;47.378;8.300;2022-10-16T05:49:02;13.30;99.90
43987;DHT22;29650;47.378;8.300;2022-10-16T05:51:30;13.30;99.90
43987;DHT22;29650;47.378;8.300;2022-10-16T05:53:57;13.20;99.90
43987;DHT22;29650;47.378;8.300;2022-10-16T05:56:24;13.20;99.90
43987;DHT22;29650;47.378;8.300;2022-10-16T05:58:51;13.10;99.90
43987;DHT22;29650;47.378;8.300;2022-10-16T06:01:19;13.20;99.90
43987;DHT22;29650;47.378;8.300;2022-10-16T06:03:49;13.20;99.90
43987;DHT22;29650;47.378;8.300;2022-10-16T06:06:18;13.20;99.90
43987;DHT22;29650;47.378;8.300;2022-10-16T06:08:48;13.20;99.90
43987;DHT22;29650;47.378;8.300;2022-10-16T06:11:17;13.20;99.90
43987;DHT22;29650;47.378;8.300;2022-10-16T06:13:45;13.10;99.90
43987;DHT22;29650;47.378;8.300;2022-10-16T06:16:15;13.10;99.90
43987;DHT22;29650;47.378;8.300;2022-10-16T06:18:42;13.20;99.90
43987;DHT22;29650;47.378;8.300;2022-10-16T06:21:10;13.20;99.90
43987;DHT22;29650;47.378;8.300;2022-10-16T06:23:37;13.20;99.90
43987;DHT22;29650;47.378;8.300;2022-10-16T06:26:07;13.10;99.90
43987;DHT22;29650;47.378;8.300;2022-10-16T06:28:34;13.20;99.90
43987;DHT22;29650;47.378;8.300;2022-10-16T06:31:01;13.20;99.90
43987;DHT22;29650;47.378;8.300;2022-10-16T06:33:28;13.30;99.90
43987;DHT22;29650;47.378;8.300;2022-10-16T06:36:00;13.30;99.90
43987;DHT22;29650;47.378;8.300;2022-10-16T06:38:27;13.50;99.90
43987;DHT22;29650;47.378;8.300;2022-10-16T06:40:54;13.50;99.90
43987;DHT22;29650;47.378;8.300;2022-10-16T06:43:25;13.60;99.90
43987;DHT22;29650;47.378;8.300;2022-10-16T06:45:52;13.50;99.90
43987;DHT22;29650;47.378;8.300;2022-10-16T06:48:20;13.40;99.90
43987;DHT22;29650;47.378;8.300;2022-10-16T06:50:56;13.40;99.90
43987;DHT22;29650;47.378;8.300;2022-10-16T06:53:23;13.50;99.90
43987;DHT22;29650;47.378;8.300;2022-10-16T06:55:50;13.60;99.90
43987;DHT22;29650;47.378;8.300;2022-10-16T06:58:18;13.60;99.90
43987;DHT22;29650;47.378;8.300;2022-10-16T07:00:46;13.60;99.90
43987;DHT22;29650;47.378;8.300;2022-10-16T07:03:13;13.60;99.90
43987;DHT22;29650;47.378;8.300;2022-10-16T07:05:41;13.50;99.90
43987;DHT22;29650;47.378;8.300;2022-10-16T07:08:09;13.50;99.90
43987;DHT22;29650;47.378;8.300;2022-10-16T07:10:35;13.40;99.90
43987;DHT22;29650;47.378;8.300;2022-10-16T07:13:02;13.40;99.90
43987;DHT22;29650;47.378;8.300;2022-10-16T07:15:29;13.40;99.90
43987;DHT22;29650;47.378;8.300;2022-10-16T07:17:57;13.30;99.90
43987;DHT22;29650;47.378;8.300;2022-10-16T07:20:24;13.30;99.90
43987;DHT22;29650;47.378;8.300;2022-10-16T07:22:52;13.40;99.90
43987;DHT22;29650;47.378;8.300;2022-10-16T07:25:19;13.30;99.90
43987;DHT22;29650;47.378;8.300;2022-10-16T07:27:45;13.40;99.90
43987;DHT22;29650;47.378;8.300;2022-10-16T07:30:13;13.40;99.90
43987;DHT22;29650;47.378;8.300;2022-10-16T07:32:40;13.50;99.90
43987;DHT22;29650;47.378;8.300;2022-10-16T07:35:08;13.60;99.90
43987;DHT22;29650;47.378;8.300;2022-10-16T07:37:36;13.60;99.90
43987;DHT22;29650;47.378;8.300;2022-10-16T07:40:04;13.70;99.90
43987;DHT22;29650;47.378;8.300;2022-10-16T07:42:31;13.80;99.90
43987;DHT22;29650;47.378;8.300;2022-10-16T07:44:58;13.90;99.90
43987;DHT22;29650;47.378;8.300;2022-10-16T07:47:25;14.00;99.90
43987;DHT22;29650;47.378;8.300;2022-10-16T07:49:52;14.00;99.90
43987;DHT22;29650;47.378;8.300;2022-10-16T07:52:20;14.20;99.90
43987;DHT22;29650;47.378;8.300;2022-10-16T07:54:47;14.20;99.90
43987;DHT22;29650;47.378;8.300;2022-10-16T07:57:14;14.40;99.90
43987;DHT22;29650;47.378;8.300;2022-10-16T07:59:45;14.50;99.90
43987;DHT22;29650;47.378;8.300;2022-10-16T08:02:11;14.50;99.90
43987;DHT22;29650;47.378;8.300;2022-10-16T08:04:38;14.60;99.90
43987;DHT22;29650;47.378;8.300;2022-10-16T08:07:07;14.50;99.90
43987;DHT22;29650;47.378;8.300;2022-10-16T08:09:35;14.50;99.90
43987;DHT22;29650;47.378;8.300;2022-10-16T08:12:02;14.50;99.90
43987;DHT22;29650;47.378;8.300;2022-10-16T08:14:29;14.70;99.90
43987;DHT22;29650;47.378;8.300;2022-10-16T08:16:56;14.80;99.90
43987;DHT22;29650;47.378;8.300;2022-10-16T08:19:23;14.80;99.90
43987;DHT22;29650;47.378;8.300;2022-10-16T08:21:50;14.90;99.90
43987;DHT22;29650;47.378;8.300;2022-10-16T08:24:17;15.00;99.90
43987;DHT22;29650;47.378;8.300;2022-10-16T08:26:45;15.10;99.90
43987;DHT22;29650;47.378;8.300;2022-10-16T08:29:13;15.00;99.90
43987;DHT22;29650;47.378;8.300;2022-10-16T08:31:40;15.20;99.90
43987;DHT22;29650;47.378;8.300;2022-10-16T08:34:07;15.30;99.90
43987;DHT22;29650;47.378;8.300;2022-10-16T08:36:34;15.40;99.90
43987;DHT22;29650;47.378;8.300;2022-10-16T08:39:01;15.50;99.90
43987;DHT22;29650;47.378;8.300;2022-10-16T08:44:54;15.60;99.90
43987;DHT22;29650;47.378;8.300;2022-10-16T08:47:30;15.70;99.90
43987;DHT22;29650;47.378;8.300;2022-10-16T08:49:59;15.80;99.90
43987;DHT22;29650;47.378;8.300;2022-10-16T08:52:30;15.80;99.90
43987;DHT22;29650;47.378;8.300;2022-10-16T08:54:59;15.90;99.90
43987;DHT22;29650;47.378;8.300;2022-10-16T08:57:26;16.00;99.90
43987;DHT22;29650;47.378;8.300;2022-10-16T08:59:59;16.20;99.90
43987;DHT22;29650;47.378;8.300;2022-10-16T09:02:32;16.30;99.90
43987;DHT22;29650;47.378;8.300;2022-10-16T09:05:21;16.20;99.90
43987;DHT22;29650;47.378;8.300;2022-10-16T09:07:57;16.40;99.90
43987;DHT22;29650;47.378;8.300;2022-10-16T09:10:37;16.40;99.90
43987;DHT22;29650;47.378;8.300;2022-10-16T09:13:15;16.50;99.90
43987;DHT22;29650;47.378;8.300;2022-10-16T09:15:49;16.60;99.90
43987;DHT22;29650;47.378;8.300;2022-10-16T09:18:24;16.70;99.90
43987;DHT22;29650;47.378;8.300;2022-10-16T09:20:58;16.80;99.90
43987;DHT22;29650;47.378;8.300;2022-10-16T09:23:27;16.90;99.90
43987;DHT22;29650;47.378;8.300;2022-10-16T09:25:56;16.90;99.90
43987;DHT22;29650;47.378;8.300;2022-10-16T09:28:25;17.00;99.90
43987;DHT22;29650;47.378;8.300;2022-10-16T09:30:53;17.00;99.90
43987;DHT22;29650;47.378;8.300;2022-10-16T09:33:23;17.00;99.90
43987;DHT22;29650;47.378;8.300;2022-10-16T09:35:53;16.90;99.90
43987;DHT22;29650;47.378;8.300;2022-10-16T09:38:25;17.00;99.90
43987;DHT22;29650;47.378;8.300;2022-10-16T09:40:54;17.10;99.90
43987;DHT22;29650;47.378;8.300;2022-10-16T09:43:24;17.10;99.90
43987;DHT22;29650;47.378;8.300;2022-10-16T09:45:59;17.30;99.90
43987;DHT22;29650;47.378;8.300;2022-10-16T09:48:28;17.20;99.90
43987;DHT22;29650;47.378;8.300;2022-10-16T09:50:58;17.20;99.90
43987;DHT22;29650;47.378;8.300;2022-10-16T09:53:37;17.50;99.90
43987;DHT22;29650;47.378;8.300;2022-10-16T09:56:05;17.70;99.90
43987;DHT22;29650;47.378;8.300;2022-10-16T09:58:33;17.70;99.90
43987;DHT22;29650;47.378;8.300;2022-10-16T10:01:01;17.80;99.90
43987;DHT22;29650;47.378;8.300;2022-10-16T10:03:34;18.00;99.90
43987;DHT22;29650;47.378;8.300;2022-10-16T10:06:07;18.00;99.90
43987;DHT22;29650;47.378;8.300;2022-10-16T10:08:51;18.10;99.90
43987;DHT22;29650;47.378;8.300;2022-10-16T10:11:18;18.30;99.90
43987;DHT22;29650;47.378;8.300;2022-10-16T10:14:05;18.20;99.90
43987;DHT22;29650;47.378;8.300;2022-10-16T10:16:34;18.30;99.90
43987;DHT22;29650;47.378;8.300;2022-10-16T10:19:01;18.30;99.90
43987;DHT22;29650;47.378;8.300;2022-10-16T10:21:28;18.30;99.90
43987;DHT22;29650;47.378;8.300;2022-10-16T10:23:55;18.40;99.90
43987;DHT22;29650;47.378;8.300;2022-10-16T10:26:25;18.40;99.90
43987;DHT22;29650;47.378;8.300;2022-10-16T10:29:00;18.50;99.90
43987;DHT22;29650;47.378;8.300;2022-10-16T10:31:36;18.70;99.90
43987;DHT22;29650;47.378;8.300;2022-10-16T10:34:18;18.70;99.90
43987;DHT22;29650;47.378;8.300;2022-10-16T10:36:54;18.60;99.90
43987;DHT22;29650;47.378;8.300;2022-10-16T10:39:27;18.70;99.90
43987;DHT22;29650;47.378;8.300;2022-10-16T10:42:14;18.80;99.90
43987;DHT22;29650;47.378;8.300;2022-10-16T10:45:03;18.90;99.90
43987;DHT22;29650;47.378;8.300;2022-10-16T10:47:43;19.10;99.90
43987;DHT22;29650;47.378;8.300;2022-10-16T10:50:19;19.20;99.90
43987;DHT22;29650;47.378;8.300;2022-10-16T10:52:57;19.40;99.90
43987;DHT22;29650;47.378;8.300;2022-10-16T10:55:31;19.30;99.90
43987;DHT22;29650;47.378;8.300;2022-10-16T10:58:40;19.50;99.90
43987;DHT22;29650;47.378;8.300;2022-10-16T11:01:11;19.60;99.90
43987;DHT22;29650;47.378;8.300;2022-10-16T11:04:07;19.50;99.90
43987;DHT22;29650;47.378;8.300;2022-10-16T11:06:42;19.60;99.90
43987;DHT22;29650;47.378;8.300;2022-10-16T11:09:13;19.60;99.90
43987;DHT22;29650;47.378;8.300;2022-10-16T11:11:45;19.90;99.90
43987;DHT22;29650;47.378;8.300;2022-10-16T11:14:18;20.20;99.90
43987;DHT22;29650;47.378;8.300;2022-10-16T11:16:49;20.10;99.90
43987;DHT22;29650;47.378;8.300;2022-10-16T11:19:28;20.10;99.90
43987;DHT22;29650;47.378;8.300;2022-10-16T11:22:02;20.30;99.90
43987;DHT22;29650;47.378;8.300;2022-10-16T11:24:39;20.40;99.90
43987;DHT22;29650;47.378;8.300;2022-10-16T11:27:09;20.20;99.90
43987;DHT22;29650;47.378;8.300;2022-10-16T11:29:45;19.90;99.90
43987;DHT22;29650;47.378;8.300;2022-10-16T11:32:20;20.00;99.90
43987;DHT22;29650;47.378;8.300;2022-10-16T11:34:52;20.20;99.90
43987;DHT22;29650;47.378;8.300;2022-10-16T11:37:23;20.30;99.90
43987;DHT22;29650;47.378;8.300;2022-10-16T11:39:54;20.50;99.90
43987;DHT22;29650;47.378;8.300;2022-10-16T11:42:30;20.60;99.90
43987;DHT22;29650;47.378;8.300;2022-10-16T11:45:03;20.50;99.90
43987;DHT22;29650;47.378;8.300;2022-10-16T11:47:35;20.50;99.90
43987;DHT22;29650;47.378;8.300;2022-10-16T11:50:12;20.50;99.90
43987;DHT22;29650;47.378;8.300;2022-10-16T11:52:44;20.60;99.90
43987;DHT22;29650;47.378;8.300;2022-10-16T11:55:15;20.50;99.90
43987;DHT22;29650;47.378;8.300;2022-10-16T11:57:46;20.50;99.90
43987;DHT22;29650;47.378;8.300;2022-10-16T12:00:20;20.40;99.90
43987;DHT22;29650;47.378;8.300;2022-10-16T12:02:57;20.70;99.90
43987;DHT22;29650;47.378;8.300;2022-10-16T12:05:35;20.70;99.90
43987;DHT22;29650;47.378;8.300;2022-10-16T12:08:09;20.80;99.90
43987;DHT22;29650;47.378;8.300;2022-10-16T12:10:37;20.80;99.90
43987;DHT22;29650;47.378;8.300;2022-10-16T12:13:05;20.80;99.90
43987;DHT22;29650;47.378;8.300;2022-10-16T12:15:33;20.70;99.90
43987;DHT22;29650;47.378;8.300;2022-10-16T12:18:00;20.90;99.90
43987;DHT22;29650;47.378;8.300;2022-10-16T12:20:31;20.90;99.90
43987;DHT22;29650;47.378;8.300;2022-10-16T12:23:00;21.00;99.90
43987;DHT22;29650;47.378;8.300;2022-10-16T12:25:28;21.00;99.90
43987;DHT22;29650;47.378;8.300;2022-10-16T12:28:01;21.00;99.90
43987;DHT22;29650;47.378;8.300;2022-10-16T12:30:31;21.10;99.90
43987;DHT22;29650;47.378;8.300;2022-10-16T12:33:00;21.00;99.90
43987;DHT22;29650;47.378;8.300;2022-10-16T12:35:32;21.00;99.90
43987;DHT22;29650;47.378;8.300;2022-10-16T12:38:17;21.10;99.90
43987;DHT22;29650;47.378;8.300;2022-10-16T12:40:44;21.10;99.90
43987;DHT22;29650;47.378;8.300;2022-10-16T12:43:35;21.20;99.90
43987;DHT22;29650;47.378;8.300;2022-10-16T12:46:05;21.50;99.90
43987;DHT22;29650;47.378;8.300;2022-10-16T12:48:32;21.50;99.90
43987;DHT22;29650;47.378;8.300;2022-10-16T12:51:11;21.50;99.90
43987;DHT22;29650;47.378;8.300;2022-10-16T12:53:38;21.50;99.90
43987;DHT22;29650;47.378;8.300;2022-10-16T12:56:13;21.50;99.90
43987;DHT22;29650;47.378;8.300;2022-10-16T12:58:52;21.50;99.90
43987;DHT22;29650;47.378;8.300;2022-10-16T13:01:37;21.50;99.10
43987;DHT22;29650;47.378;8.300;2022-10-16T13:04:31;21.60;99.90
43987;DHT22;29650;47.378;8.300;2022-10-16T13:07:20;21.60;98.80
43987;DHT22;29650;47.378;8.300;2022-10-16T13:10:01;21.70;99.40
43987;DHT22;29650;47.378;8.300;2022-10-16T13:12:45;21.70;97.30
43987;DHT22;29650;47.378;8.300;2022-10-16T13:18:15;21.70;98.20
43987;DHT22;29650;47.378;8.300;2022-10-16T13:20:58;21.80;97.90
43987;DHT22;29650;47.378;8.300;2022-10-16T13:23:36;21.90;95.20
43987;DHT22;29650;47.378;8.300;2022-10-16T13:26:17;21.80;94.90
43987;DHT22;29650;47.378;8.300;2022-10-16T13:28:47;21.80;94.30
43987;DHT22;29650;47.378;8.300;2022-10-16T13:31:17;21.90;95.70
43987;DHT22;29650;47.378;8.300;2022-10-16T13:33:47;21.80;94.40
43987;DHT22;29650;47.378;8.300;2022-10-16T13:36:21;21.90;93.50
43987;DHT22;29650;47.378;8.300;2022-10-16T13:39:10;22.00;92.80
43987;DHT22;29650;47.378;8.300;2022-10-16T13:41:38;22.10;92.90
43987;DHT22;29650;47.378;8.300;2022-10-16T13:44:08;22.20;91.70
43987;DHT22;29650;47.378;8.300;2022-10-16T13:46:35;22.20;92.70
43987;DHT22;29650;47.378;8.300;2022-10-16T13:49:04;22.20;90.50
43987;DHT22;29650;47.378;8.300;2022-10-16T13:51:32;22.20;90.00
43987;DHT22;29650;47.378;8.300;2022-10-16T13:54:00;22.30;89.60
43987;DHT22;29650;47.378;8.300;2022-10-16T13:56:29;22.20;90.50
43987;DHT22;29650;47.378;8.300;2022-10-16T13:59:00;22.10;92.40
43987;DHT22;29650;47.378;8.300;2022-10-16T14:01:29;22.10;93.90
43987;DHT22;29650;47.378;8.300;2022-10-16T14:04:02;22.00;94.60
43987;DHT22;29650;47.378;8.300;2022-10-16T14:06:30;22.00;92.60
43987;DHT22;29650;47.378;8.300;2022-10-16T14:09:01;22.20;91.50
43987;DHT22;29650;47.378;8.300;2022-10-16T14:11:29;22.20;87.70
43987;DHT22;29650;47.378;8.300;2022-10-16T14:13:56;22.10;90.70
43987;DHT22;29650;47.378;8.300;2022-10-16T14:16:26;21.90;91.40
43987;DHT22;29650;47.378;8.300;2022-10-16T14:18:57;22.00;90.40
43987;DHT22;29650;47.378;8.300;2022-10-16T14:21:24;22.10;90.40
43987;DHT22;29650;47.378;8.300;2022-10-16T14:23:52;22.00;91.80
43987;DHT22;29650;47.378;8.300;2022-10-16T14:26:23;22.00;93.00
43987;DHT22;29650;47.378;8.300;2022-10-16T14:29:08;22.00;93.50
43987;DHT22;29650;47.378;8.300;2022-10-16T14:31:36;22.00;91.00
43987;DHT22;29650;47.378;8.300;2022-10-16T14:34:23;22.10;88.00
43987;DHT22;29650;47.378;8.300;2022-10-16T14:36:51;22.10;88.80
43987;DHT22;29650;47.378;8.300;2022-10-16T14:39:20;22.10;89.40
43987;DHT22;29650;47.378;8.300;2022-10-16T14:41:50;22.10;87.40
43987;DHT22;29650;47.378;8.300;2022-10-16T14:44:17;22.10;87.30
43987;DHT22;29650;47.378;8.300;2022-10-16T14:46:45;22.10;88.40
43987;DHT22;29650;47.378;8.300;2022-10-16T14:49:16;22.10;88.10
43987;DHT22;29650;47.378;8.300;2022-10-16T14:51:45;22.10;88.20
43987;DHT22;29650;47.378;8.300;2022-10-16T14:54:13;22.10;88.20
43987;DHT22;29650;47.378;8.300;2022-10-16T14:56:47;22.20;89.80
43987;DHT22;29650;47.378;8.300;2022-10-16T14:59:19;22.30;87.80
43987;DHT22;29650;47.378;8.300;2022-10-16T15:01:46;22.40;86.30
43987;DHT22;29650;47.378;8.300;2022-10-16T15:04:13;22.60;87.30
43987;DHT22;29650;47.378;8.300;2022-10-16T15:06:41;22.70;86.50
43987;DHT22;29650;47.378;8.300;2022-10-16T15:09:08;22.60;89.30
43987;DHT22;29650;47.378;8.300;2022-10-16T15:11:35;22.30;89.60
43987;DHT22;29650;47.378;8.300;2022-10-16T15:14:02;22.50;89.00
43987;DHT22;29650;47.378;8.300;2022-10-16T15:16:31;22.60;87.60
43987;DHT22;29650;47.378;8.300;2022-10-16T15:18:58;22.60;85.80
43987;DHT22;29650;47.378;8.300;2022-10-16T15:21:26;22.70;85.20
43987;DHT22;29650;47.378;8.300;2022-10-16T15:23:54;22.50;86.40
43987;DHT22;29650;47.378;8.300;2022-10-16T15:26:22;22.50;88.40
43987;DHT22;29650;47.378;8.300;2022-10-16T15:28:49;22.50;90.80
43987;DHT22;29650;47.378;8.300;2022-10-16T15:31:16;22.40;91.90
43987;DHT22;29650;47.378;8.300;2022-10-16T15:33:44;22.10;93.10
43987;DHT22;29650;47.378;8.300;2022-10-16T15:36:24;22.10;93.00
43987;DHT22;29650;47.378;8.300;2022-10-16T15:38:51;21.90;95.40
43987;DHT22;29650;47.378;8.300;2022-10-16T15:41:19;21.70;98.30
43987;DHT22;29650;47.378;8.300;2022-10-16T15:43:48;21.40;99.90
43987;DHT22;29650;47.378;8.300;2022-10-16T15:46:16;21.20;99.90
43987;DHT22;29650;47.378;8.300;2022-10-16T15:48:45;20.80;99.90
43987;DHT22;29650;47.378;8.300;2022-10-16T15:51:12;20.80;99.90
43987;DHT22;29650;47.378;8.300;2022-10-16T15:53:39;20.70;99.90
43987;DHT22;29650;47.378;8.300;2022-10-16T15:56:08;20.60;99.90